createdAt,value
2018-12-07T13:02:48.810Z,335
2018-12-07T13:02:51.148Z,334
2018-12-07T13:02:53.537Z,334
2018-12-07T13:02:55.983Z,376
2018-12-07T13:02:58.336Z,210
2018-12-07T13:03:00.654Z,12
2018-12-07T13:03:02.967Z,8
2018-12-07T13:03:05.308Z,309
2018-12-07T15:22:36.346Z,30
2018-12-07T15:22:40.478Z,14
2018-12-07T15:22:45.495Z,12
2018-12-07T15:22:47.901Z,6
2018-12-07T15:22:50.287Z,6
2018-12-07T15:22:52.516Z,3
2018-12-07T15:22:55.108Z,6
2018-12-07T15:22:57.294Z,2
2018-12-07T15:23:00.777Z,29
2018-12-07T15:23:03.179Z,12
2018-12-07T15:23:05.518Z,0
2018-12-07T15:23:08.002Z,3
2018-12-07T15:23:10.280Z,6
2018-12-07T15:23:12.571Z,6
2018-12-07T15:23:14.804Z,9
2018-12-07T15:23:17.138Z,34
2018-12-07T15:23:19.561Z,10
2018-12-07T15:23:21.879Z,8
2018-12-07T15:23:25.465Z,7
2018-12-07T15:23:27.640Z,6
2018-12-07T15:23:30.218Z,9
2018-12-07T15:23:32.465Z,7
2018-12-07T15:23:34.792Z,7
2018-12-07T15:23:37.372Z,9
2018-12-07T15:23:39.557Z,4
2018-12-07T15:23:42.101Z,3
2018-12-07T15:23:44.381Z,2
2018-12-07T15:23:46.904Z,56
2018-12-07T15:29:06.785Z,0
2018-12-07T15:29:09.038Z,0
2018-12-07T15:29:11.357Z,0
2018-12-07T15:29:13.770Z,0
2018-12-07T15:29:16.222Z,0
2018-12-07T15:29:18.536Z,0
2018-12-07T15:29:20.913Z,0
2018-12-07T15:29:23.311Z,0
2018-12-07T15:29:25.504Z,0
2018-12-07T15:29:28.005Z,0
2018-12-07T15:29:30.207Z,0
2018-12-07T15:29:32.738Z,0
2018-12-07T15:29:35.156Z,0
2018-12-07T15:29:37.313Z,0
2018-12-07T15:29:39.582Z,0
2018-12-07T15:29:42.044Z,0
2018-12-07T15:29:44.611Z,0
2018-12-07T15:29:46.829Z,0
2018-12-07T15:29:49.197Z,0
2018-12-07T15:29:51.581Z,0
2018-12-07T15:29:54.062Z,0
2018-12-07T15:29:56.318Z,0
2018-12-07T15:29:59.691Z,0
2018-12-07T15:30:02.076Z,0
2018-12-07T15:30:04.420Z,0
2018-12-07T15:30:06.770Z,0
2018-12-07T15:30:09.079Z,0
2018-12-07T15:30:11.425Z,0
2018-12-07T15:30:13.899Z,0
2018-12-07T15:30:16.184Z,0
2018-12-07T15:30:18.687Z,0
2018-12-07T15:30:20.887Z,0
2018-12-07T15:30:23.469Z,0
2018-12-07T15:30:25.721Z,0
2018-12-07T15:30:28.102Z,0
